createdAt,value
2022-10-19T00:04:17.161Z,17.56
2022-10-19T00:09:19.613Z,17.53
2022-10-19T00:14:23.445Z,17.54
2022-10-19T00:19:27.599Z,17.51
2022-10-19T00:24:29.550Z,17.28
2022-10-19T00:29:31.526Z,17.05
2022-10-19T00:34:33.456Z,17.14
2022-10-19T00:39:35.389Z,17.13
2022-10-19T00:44:37.321Z,17.11
2022-10-19T00:49:43.016Z,17.09
2022-10-19T00:54:46.399Z,17.02
2022-10-19T00:59:48.349Z,16.95
2022-10-19T01:04:52.100Z,16.90
2022-10-19T01:09:54.856Z,16.76
2022-10-19T01:15:06.732Z,16.76
2022-10-19T01:20:27.551Z,16.71
2022-10-19T01:26:00.199Z,16.61
2022-10-19T01:31:05.199Z,16.60
2022-10-19T01:36:38.236Z,16.62
2022-10-19T01:41:52.148Z,16.60
2022-10-19T01:47:19.673Z,16.58
2022-10-19T01:52:23.324Z,16.49
2022-10-19T01:57:37.705Z,16.44
2022-10-19T02:02:45.315Z,16.44
2022-10-19T02:07:53.479Z,16.41
2022-10-19T02:12:55.610Z,16.37
2022-10-19T02:17:59.986Z,16.36
2022-10-19T02:23:06.088Z,16.38
2022-10-19T02:28:07.961Z,16.33
2022-10-19T02:33:10.109Z,16.30
2022-10-19T02:38:16.700Z,16.25
2022-10-19T02:43:23.272Z,16.08
2022-10-19T02:48:26.509Z,16.21
2022-10-19T02:53:29.080Z,16.19
2022-10-19T02:58:30.937Z,15.92
2022-10-19T03:03:32.933Z,16.14
2022-10-19T03:08:35.001Z,16.13
2022-10-19T03:13:36.859Z,16.09
2022-10-19T03:18:39.017Z,16.05
2022-10-19T03:23:41.322Z,15.99
2022-10-19T03:28:43.214Z,15.95
2022-10-19T03:33:45.705Z,15.87
2022-10-19T03:38:49.644Z,15.71
2022-10-19T03:43:51.850Z,15.91
2022-10-19T03:48:54.362Z,15.84
2022-10-19T03:54:02.754Z,15.86
2022-10-19T03:59:05.802Z,15.87
2022-10-19T04:04:11.536Z,15.80
2022-10-19T04:09:16.428Z,15.69
2022-10-19T04:14:31.657Z,15.77
2022-10-19T04:19:35.027Z,15.76
2022-10-19T04:24:37.025Z,15.78
2022-10-19T04:29:38.954Z,15.82
2022-10-19T04:34:41.002Z,15.88
2022-10-19T04:39:43.943Z,15.86
2022-10-19T04:44:45.841Z,15.93
2022-10-19T04:49:47.800Z,15.94
2022-10-19T04:54:49.758Z,15.68
2022-10-19T04:59:51.789Z,15.87
2022-10-19T05:04:53.713Z,15.77
2022-10-19T05:09:55.647Z,15.72
2022-10-19T05:14:57.612Z,15.72
2022-10-19T05:19:59.713Z,15.53
2022-10-19T05:25:01.647Z,15.76
2022-10-19T05:30:04.702Z,15.41
2022-10-19T05:35:12.358Z,15.71
2022-10-19T05:40:14.425Z,15.66
2022-10-19T05:45:16.359Z,15.65
2022-10-19T05:50:18.265Z,15.66
2022-10-19T05:55:20.315Z,15.59
2022-10-19T06:00:22.492Z,15.59
2022-10-19T06:05:24.480Z,15.60
2022-10-19T06:10:26.456Z,15.64
2022-10-19T06:15:28.315Z,15.54
2022-10-19T06:20:30.692Z,15.62
2022-10-19T06:25:33.720Z,15.60
2022-10-19T06:30:39.666Z,15.71
2022-10-19T06:35:43.231Z,15.53
2022-10-19T06:40:45.235Z,15.69
2022-10-19T06:45:47.305Z,15.72
2022-10-19T06:50:59.850Z,15.76
2022-10-19T06:56:04.040Z,15.86
2022-10-19T07:01:10.472Z,15.84
2022-10-19T07:06:13.460Z,15.82
2022-10-19T07:11:17.848Z,15.73
2022-10-19T07:16:21.252Z,15.95
2022-10-19T07:21:24.164Z,16.01
2022-10-19T07:26:28.153Z,16.09
2022-10-19T07:31:30.732Z,16.10
2022-10-19T07:36:34.199Z,16.14
2022-10-19T07:41:36.266Z,16.25
2022-10-19T07:46:38.891Z,16.36
2022-10-19T07:51:42.068Z,16.46
2022-10-19T07:56:44.136Z,16.64
2022-10-19T08:01:47.751Z,16.79
2022-10-19T08:06:50.217Z,16.77
2022-10-19T08:11:52.229Z,17.00
2022-10-19T08:16:54.228Z,17.05
2022-10-19T08:21:56.148Z,17.08
2022-10-19T08:26:58.144Z,17.14
2022-10-19T08:32:00.327Z,17.39
2022-10-19T08:37:10.238Z,17.71
2022-10-19T08:42:47.937Z,17.72
2022-10-19T08:47:56.152Z,18.09
2022-10-19T08:53:06.915Z,18.57
2022-10-19T08:58:24.172Z,19.45
2022-10-19T09:03:54.343Z,20.31
2022-10-19T09:08:57.087Z,20.94
2022-10-19T09:14:19.281Z,21.21
2022-10-19T09:19:26.366Z,21.49
2022-10-19T09:24:30.155Z,21.25
2022-10-19T09:29:50.301Z,21.20
2022-10-19T09:34:55.731Z,21.05
2022-10-19T09:39:57.977Z,21.04
2022-10-19T09:45:01.784Z,20.95
2022-10-19T09:50:16.175Z,21.00
2022-10-19T09:55:35.355Z,21.54
2022-10-19T10:00:43.906Z,22.20
2022-10-19T10:05:49.283Z,22.15
2022-10-19T10:11:11.948Z,22.68
2022-10-19T10:16:19.154Z,23.24
2022-10-19T10:21:26.065Z,22.88
2022-10-19T10:26:29.038Z,22.48
2022-10-19T10:31:31.347Z,22.76
2022-10-19T10:36:33.496Z,22.95
2022-10-19T10:41:39.060Z,22.94
2022-10-19T10:46:50.941Z,22.97
2022-10-19T10:52:05.923Z,22.73
2022-10-19T10:57:18.710Z,22.68
2022-10-19T11:02:49.788Z,22.52
2022-10-19T11:08:13.117Z,22.48
2022-10-19T11:13:23.622Z,22.48
2022-10-19T11:18:30.133Z,22.39
2022-10-19T11:23:48.570Z,22.24
2022-10-19T11:29:02.995Z,22.22
2022-10-19T11:34:16.115Z,22.23
2022-10-19T11:39:57.104Z,22.19
2022-10-19T11:45:16.807Z,21.97
2022-10-19T11:50:39.233Z,21.81
2022-10-19T11:55:47.064Z,21.91
2022-10-19T12:01:08.534Z,22.09
2022-10-19T12:06:29.622Z,22.39
2022-10-19T12:11:46.668Z,22.47
2022-10-19T12:16:52.418Z,22.55
2022-10-19T12:21:55.897Z,22.64
2022-10-19T12:26:58.056Z,22.57
2022-10-19T12:32:01.388Z,22.31
2022-10-19T12:37:12.371Z,22.41
2022-10-19T12:42:31.473Z,22.58
2022-10-19T12:47:33.610Z,22.71
2022-10-19T12:52:37.718Z,22.77
2022-10-19T12:57:40.323Z,22.72
2022-10-19T13:02:42.520Z,22.73
2022-10-19T13:07:48.804Z,22.69
2022-10-19T13:12:51.530Z,22.77
2022-10-19T13:17:53.433Z,22.87
2022-10-19T13:23:01.146Z,22.54
2022-10-19T13:28:18.149Z,22.57
2022-10-19T13:33:26.048Z,22.83
2022-10-19T13:38:33.111Z,23.12
2022-10-19T13:43:58.364Z,23.21
2022-10-19T13:49:37.597Z,22.99
2022-10-19T13:54:48.295Z,22.86
2022-10-19T13:59:56.137Z,22.83
2022-10-19T14:05:23.208Z,22.76
2022-10-19T14:10:32.856Z,22.63
2022-10-19T14:15:40.607Z,22.38
2022-10-19T14:20:42.524Z,22.53
2022-10-19T14:26:00.376Z,22.91
2022-10-19T14:31:08.786Z,23.07
2022-10-19T14:36:17.622Z,22.96
2022-10-19T14:41:27.193Z,22.68
2022-10-19T14:46:33.939Z,22.92
2022-10-19T14:51:46.722Z,23.00
2022-10-19T14:56:51.031Z,22.97
2022-10-19T15:01:55.706Z,22.91
2022-10-19T15:06:59.104Z,22.98
2022-10-19T15:12:12.761Z,22.99
2022-10-19T15:17:25.835Z,22.96
2022-10-19T15:22:34.141Z,22.92
2022-10-19T15:27:46.236Z,23.14
2022-10-19T15:33:01.782Z,23.28
2022-10-19T15:38:14.938Z,23.33
2022-10-19T15:43:34.830Z,23.08
2022-10-19T15:48:44.490Z,23.24
2022-10-19T15:53:46.391Z,23.16
2022-10-19T15:58:52.863Z,23.02
2022-10-19T16:03:55.248Z,22.88
2022-10-19T16:08:58.833Z,22.76
2022-10-19T16:14:00.980Z,22.52
2022-10-19T16:19:04.199Z,22.38
2022-10-19T16:24:06.079Z,22.57
2022-10-19T16:29:08.068Z,22.50
2022-10-19T16:34:10.040Z,22.26
2022-10-19T16:39:12.237Z,22.39
2022-10-19T16:44:14.136Z,22.50
2022-10-19T16:49:15.865Z,22.49
2022-10-19T16:54:18.363Z,22.38
2022-10-19T16:59:20.270Z,22.33
2022-10-19T17:04:22.238Z,22.30
2022-10-19T17:09:42.312Z,22.05
2022-10-19T17:14:44.977Z,21.92
2022-10-19T17:19:47.699Z,21.79
2022-10-19T17:24:49.690Z,21.66
2022-10-19T17:29:51.634Z,21.55
2022-10-19T17:34:54.618Z,21.45
2022-10-19T17:39:56.546Z,21.41
2022-10-19T17:44:58.474Z,21.46
2022-10-19T17:50:00.397Z,21.33
2022-10-19T17:55:17.741Z,21.26
2022-10-19T18:00:20.484Z,21.20
2022-10-19T18:05:25.602Z,20.93
2022-10-19T18:10:27.540Z,20.96
2022-10-19T18:15:29.428Z,20.92
2022-10-19T18:20:31.391Z,20.74
2022-10-19T18:25:53.533Z,20.76
2022-10-19T18:30:56.315Z,20.82
2022-10-19T18:35:58.737Z,21.06
2022-10-19T18:41:08.246Z,21.01
2022-10-19T18:46:10.713Z,21.03
2022-10-19T18:51:14.615Z,20.97
2022-10-19T18:56:17.221Z,20.75
2022-10-19T19:01:25.152Z,20.73
2022-10-19T19:06:29.595Z,20.87
2022-10-19T19:11:36.082Z,20.84
2022-10-19T19:16:40.382Z,20.86
2022-10-19T19:21:44.695Z,20.99
2022-10-19T19:26:50.726Z,20.91
2022-10-19T19:31:53.709Z,20.79
2022-10-19T19:36:55.807Z,20.74
2022-10-19T19:41:57.697Z,21.01
2022-10-19T19:47:01.111Z,20.97
2022-10-19T19:52:09.469Z,20.86
2022-10-19T19:57:11.694Z,21.14
2022-10-19T20:02:13.621Z,21.21
2022-10-19T20:07:15.580Z,21.11
2022-10-19T20:12:17.501Z,21.10
2022-10-19T20:17:23.766Z,20.87
2022-10-19T20:22:26.500Z,20.99
2022-10-19T20:27:28.896Z,21.03
2022-10-19T20:32:30.860Z,20.97
2022-10-19T20:37:33.525Z,20.95
2022-10-19T20:42:36.861Z,20.94
2022-10-19T20:47:40.132Z,20.89
2022-10-19T20:52:42.098Z,20.71
2022-10-19T20:57:44.059Z,20.82
2022-10-19T21:02:47.692Z,20.75
2022-10-19T21:07:49.586Z,20.78
2022-10-19T21:12:51.760Z,20.54
2022-10-19T21:17:53.762Z,20.42
2022-10-19T21:22:55.744Z,20.58
2022-10-19T21:27:57.658Z,20.58
2022-10-19T21:32:59.613Z,20.55
2022-10-19T21:38:01.932Z,20.41
2022-10-19T21:43:03.932Z,20.41
2022-10-19T21:48:06.046Z,20.32
2022-10-19T21:53:07.989Z,20.34
2022-10-19T21:58:10.169Z,20.28
2022-10-19T22:08:21.714Z,20.17
2022-10-19T22:13:23.577Z,20.13
2022-10-19T22:18:25.428Z,20.07
2022-10-19T22:23:28.099Z,19.97
2022-10-19T22:28:29.906Z,19.85
2022-10-19T22:33:31.801Z,19.85
2022-10-19T22:38:40.726Z,19.79
2022-10-19T22:44:39.615Z,19.70
2022-10-19T22:50:56.162Z,19.64
2022-10-19T22:56:16.954Z,19.51
2022-10-19T23:01:19.295Z,19.45
2022-10-19T23:06:21.818Z,19.34
2022-10-19T23:11:23.760Z,19.21
2022-10-19T23:21:33.376Z,19.01
2022-10-19T23:26:35.414Z,18.79
2022-10-19T23:31:38.328Z,18.74
2022-10-19T23:36:40.320Z,18.43
2022-10-19T23:41:42.182Z,18.42
2022-10-19T23:46:44.040Z,18.29
2022-10-19T23:51:46.000Z,18.16
2022-10-19T23:56:47.898Z,18.25
